createdAt,value
2022-11-03T00:00:30.816Z,0
2022-11-03T00:01:30.802Z,0
2022-11-03T00:02:30.809Z,0
2022-11-03T00:03:30.779Z,0
2022-11-03T00:04:30.775Z,0
2022-11-03T00:05:30.777Z,0
2022-11-03T00:06:30.753Z,0
2022-11-03T00:07:30.744Z,0
2022-11-03T00:08:30.754Z,0
2022-11-03T00:09:30.715Z,0
2022-11-03T00:10:30.712Z,0
2022-11-03T00:11:30.697Z,0
2022-11-03T00:12:30.689Z,0
2022-11-03T00:13:30.683Z,0
2022-11-03T00:14:30.667Z,0
2022-11-03T00:15:30.661Z,0
2022-11-03T00:16:30.644Z,0
2022-11-03T00:17:30.671Z,0
2022-11-03T00:18:30.623Z,0
2022-11-03T00:19:30.611Z,0
2022-11-03T00:20:30.601Z,0
2022-11-03T00:21:30.589Z,0
2022-11-03T00:22:30.581Z,0
2022-11-03T00:23:30.583Z,0
2022-11-03T00:24:30.564Z,0
2022-11-03T00:25:30.552Z,0
2022-11-03T00:26:30.542Z,0
2022-11-03T00:27:30.528Z,0
2022-11-03T00:28:30.518Z,0
2022-11-03T00:29:30.504Z,0
2022-11-03T00:30:30.496Z,0
2022-11-03T00:31:30.493Z,0
2022-11-03T00:32:30.474Z,0
2022-11-03T00:33:30.463Z,0
2022-11-03T00:34:30.457Z,0
2022-11-03T00:35:30.445Z,0
2022-11-03T00:36:30.438Z,0
2022-11-03T00:37:30.419Z,0
2022-11-03T00:38:30.410Z,0
2022-11-03T00:39:30.422Z,0
2022-11-03T00:40:30.409Z,0
2022-11-03T00:41:30.392Z,0
2022-11-03T00:42:30.374Z,0
2022-11-03T00:43:30.380Z,0
2022-11-03T00:44:30.347Z,0
2022-11-03T00:45:30.335Z,0
2022-11-03T00:46:30.322Z,0
2022-11-03T00:47:30.317Z,0
2022-11-03T00:48:30.304Z,0
2022-11-03T00:49:30.293Z,0
2022-11-03T00:50:30.280Z,0
2022-11-03T00:51:30.269Z,0
2022-11-03T00:52:30.277Z,0
2022-11-03T00:53:30.252Z,0
2022-11-03T00:54:30.241Z,0
2022-11-03T00:55:30.230Z,0
2022-11-03T00:56:30.295Z,0
2022-11-03T00:57:30.216Z,0
2022-11-03T00:58:30.202Z,0
2022-11-03T00:59:30.184Z,0
2022-11-03T01:00:30.178Z,0
2022-11-03T01:01:30.167Z,0
2022-11-03T01:02:30.157Z,0
2022-11-03T01:03:30.142Z,0
2022-11-03T01:04:30.143Z,0
2022-11-03T01:05:30.121Z,0
2022-11-03T01:06:30.110Z,0
2022-11-03T01:07:30.099Z,0
2022-11-03T01:08:30.097Z,0
2022-11-03T01:09:30.083Z,0
2022-11-03T01:10:30.066Z,0
2022-11-03T01:11:30.056Z,0
2022-11-03T01:12:30.052Z,0
2022-11-03T01:13:30.036Z,0
2022-11-03T01:14:30.025Z,0
2022-11-03T01:15:30.022Z,0
2022-11-03T01:16:30.007Z,0
2022-11-03T01:17:29.992Z,0
2022-11-03T01:18:29.985Z,0
2022-11-03T01:19:29.982Z,0
2022-11-03T01:20:29.959Z,0
2022-11-03T01:21:29.950Z,0
2022-11-03T01:22:29.934Z,0
2022-11-03T01:23:29.932Z,0
2022-11-03T01:24:29.914Z,0
2022-11-03T01:25:29.903Z,0
2022-11-03T01:26:29.898Z,0
2022-11-03T01:27:29.882Z,0
2022-11-03T01:28:29.892Z,0
2022-11-03T01:29:29.862Z,0
2022-11-03T01:30:29.848Z,0
2022-11-03T01:31:29.838Z,0
2022-11-03T01:32:29.831Z,0
2022-11-03T01:33:29.826Z,0
2022-11-03T01:34:29.808Z,0
2022-11-03T01:35:29.799Z,0
2022-11-03T01:36:29.788Z,0
2022-11-03T01:37:29.778Z,0
2022-11-03T01:38:29.766Z,0
2022-11-03T01:39:29.767Z,0
2022-11-03T01:40:29.755Z,0
2022-11-03T01:41:29.744Z,0
2022-11-03T01:42:29.749Z,0
2022-11-03T01:43:29.726Z,0
2022-11-03T01:44:29.713Z,0
2022-11-03T01:45:29.718Z,0
2022-11-03T01:46:29.685Z,0
2022-11-03T01:47:29.669Z,0
2022-11-03T01:48:29.658Z,0
2022-11-03T01:49:29.648Z,0
2022-11-03T01:50:29.639Z,0
2022-11-03T01:51:29.625Z,0
2022-11-03T01:52:29.617Z,0
2022-11-03T01:53:29.607Z,0
2022-11-03T01:54:29.590Z,0
2022-11-03T01:55:29.583Z,0
2022-11-03T01:56:29.580Z,0
2022-11-03T01:57:29.566Z,0
2022-11-03T01:58:29.554Z,0
2022-11-03T01:59:29.543Z,0
2022-11-03T02:00:29.536Z,0
2022-11-03T02:01:29.522Z,0
2022-11-03T02:02:29.506Z,0
2022-11-03T02:03:29.501Z,0
2022-11-03T02:04:29.512Z,0
2022-11-03T02:05:29.481Z,0
2022-11-03T02:06:29.465Z,0
2022-11-03T02:07:29.463Z,0
2022-11-03T02:08:29.450Z,0
2022-11-03T02:09:29.432Z,0
2022-11-03T02:10:29.431Z,0
2022-11-03T02:11:29.413Z,0
2022-11-03T02:12:29.403Z,0
2022-11-03T02:13:29.394Z,0
2022-11-03T02:14:29.384Z,0
2022-11-03T02:15:29.367Z,0
2022-11-03T02:16:29.357Z,0
2022-11-03T02:17:29.350Z,0
2022-11-03T02:18:29.342Z,0
2022-11-03T02:19:29.326Z,0
2022-11-03T02:20:29.315Z,0
2022-11-03T02:21:29.313Z,0
2022-11-03T02:22:29.297Z,0
2022-11-03T02:23:29.283Z,0
2022-11-03T02:24:29.281Z,0
2022-11-03T02:25:29.266Z,0
2022-11-03T02:26:29.256Z,0
2022-11-03T02:27:29.246Z,0
2022-11-03T02:28:29.229Z,0
2022-11-03T02:29:29.223Z,0
2022-11-03T02:30:29.213Z,0
2022-11-03T02:31:29.202Z,0
2022-11-03T02:32:29.187Z,0
2022-11-03T02:33:29.178Z,0
2022-11-03T02:34:29.171Z,0
2022-11-03T02:35:29.154Z,0
2022-11-03T02:36:29.151Z,0
2022-11-03T02:37:29.136Z,0
2022-11-03T02:38:29.125Z,0
2022-11-03T02:39:29.118Z,0
2022-11-03T02:40:29.105Z,0
2022-11-03T02:41:29.095Z,0
2022-11-03T02:42:29.101Z,0
2022-11-03T02:43:29.073Z,0
2022-11-03T02:44:29.060Z,0
2022-11-03T02:45:29.056Z,0
2022-11-03T02:46:29.048Z,0
2022-11-03T02:47:29.030Z,0
2022-11-03T02:48:29.024Z,0
2022-11-03T02:49:29.033Z,0
2022-11-03T02:50:28.992Z,0
2022-11-03T02:51:28.989Z,0
2022-11-03T02:52:28.974Z,0
2022-11-03T02:53:28.962Z,0
2022-11-03T02:54:28.955Z,0
2022-11-03T02:55:28.941Z,0
2022-11-03T02:56:28.941Z,0
2022-11-03T02:57:28.919Z,0
2022-11-03T02:58:28.923Z,0
2022-11-03T02:59:28.906Z,0
2022-11-03T03:00:28.891Z,0
2022-11-03T03:01:28.883Z,0
2022-11-03T03:02:28.870Z,0
2022-11-03T03:03:28.853Z,0
2022-11-03T03:04:28.846Z,0
2022-11-03T03:05:28.839Z,0
2022-11-03T03:06:28.827Z,0
2022-11-03T03:07:28.820Z,0
2022-11-03T03:08:28.805Z,0
2022-11-03T03:09:28.822Z,0
2022-11-03T03:10:28.798Z,0
2022-11-03T03:11:28.785Z,0
2022-11-03T03:12:28.759Z,0
2022-11-03T03:13:28.755Z,0
2022-11-03T03:14:28.738Z,0
2022-11-03T03:15:28.731Z,0
2022-11-03T03:16:28.724Z,0
2022-11-03T03:17:28.712Z,0
2022-11-03T03:18:28.702Z,0
2022-11-03T03:19:28.686Z,0
2022-11-03T03:20:28.709Z,0
2022-11-03T03:21:28.665Z,0
2022-11-03T03:22:28.660Z,0
2022-11-03T03:23:28.652Z,0
2022-11-03T03:24:28.631Z,0
2022-11-03T03:25:28.629Z,0
2022-11-03T03:26:28.619Z,0
2022-11-03T03:27:28.606Z,0
2022-11-03T03:28:28.611Z,0
2022-11-03T03:29:28.583Z,0
2022-11-03T03:30:28.575Z,0
2022-11-03T03:31:28.565Z,0
2022-11-03T03:32:28.549Z,0
2022-11-03T03:34:28.536Z,0
2022-11-03T03:35:28.519Z,0
2022-11-03T03:36:28.502Z,0
2022-11-03T03:37:28.749Z,0
2022-11-03T03:38:28.477Z,0
2022-11-03T03:39:28.472Z,0
2022-11-03T03:40:28.459Z,0
2022-11-03T03:41:28.450Z,0
2022-11-03T03:42:28.441Z,0
2022-11-03T03:43:28.426Z,0
2022-11-03T03:44:28.417Z,0
2022-11-03T03:45:28.406Z,0
2022-11-03T03:46:28.394Z,0
2022-11-03T03:47:28.408Z,0
2022-11-03T03:48:28.371Z,0
2022-11-03T03:49:28.366Z,0
2022-11-03T03:50:28.350Z,0
2022-11-03T03:51:28.344Z,0
2022-11-03T03:52:28.326Z,0
2022-11-03T03:53:28.317Z,0
2022-11-03T03:54:28.316Z,0
2022-11-03T03:55:28.296Z,0
2022-11-03T03:56:28.283Z,0
2022-11-03T03:57:28.280Z,0
2022-11-03T03:58:28.275Z,0
2022-11-03T03:59:28.269Z,0
2022-11-03T04:00:28.242Z,0
2022-11-03T04:01:28.238Z,0
2022-11-03T04:02:28.226Z,0
2022-11-03T04:03:28.210Z,0
2022-11-03T04:04:28.200Z,0
2022-11-03T04:05:28.196Z,0
2022-11-03T04:06:28.179Z,0
2022-11-03T04:07:28.172Z,0
2022-11-03T04:08:28.161Z,0
2022-11-03T04:09:28.145Z,0
2022-11-03T04:10:28.135Z,0
2022-11-03T04:11:28.127Z,0
2022-11-03T04:12:28.116Z,0
2022-11-03T04:13:28.110Z,0
2022-11-03T04:14:28.098Z,0
2022-11-03T04:15:28.087Z,0
2022-11-03T04:16:28.072Z,0
2022-11-03T04:17:28.060Z,0
2022-11-03T04:18:28.061Z,0
2022-11-03T04:19:28.049Z,0
2022-11-03T04:20:28.030Z,0
2022-11-03T04:21:28.018Z,0
2022-11-03T04:22:28.010Z,0
2022-11-03T04:23:28.001Z,0
2022-11-03T04:24:27.987Z,0
2022-11-03T04:25:27.979Z,0
2022-11-03T04:26:27.966Z,0
2022-11-03T04:27:27.959Z,0
2022-11-03T04:28:27.944Z,0
2022-11-03T04:29:27.938Z,0
2022-11-03T04:30:27.923Z,0
2022-11-03T04:31:27.919Z,0
2022-11-03T04:32:27.910Z,0
2022-11-03T04:33:27.897Z,0
2022-11-03T04:34:27.887Z,0
2022-11-03T04:35:27.875Z,0
2022-11-03T04:36:27.862Z,0
2022-11-03T04:37:27.848Z,0
2022-11-03T04:38:27.854Z,0
2022-11-03T04:39:27.839Z,0
2022-11-03T04:40:27.823Z,0
2022-11-03T04:41:27.803Z,0
2022-11-03T04:42:27.806Z,0
2022-11-03T04:43:27.787Z,0
2022-11-03T04:44:27.777Z,0
2022-11-03T04:45:27.774Z,0
2022-11-03T04:46:27.754Z,0
2022-11-03T04:47:27.743Z,0
2022-11-03T04:48:27.731Z,0
2022-11-03T04:49:27.722Z,0
2022-11-03T04:50:27.708Z,0
2022-11-03T04:51:27.704Z,0
2022-11-03T04:52:27.693Z,0
2022-11-03T04:53:27.682Z,0
2022-11-03T04:54:27.662Z,0
2022-11-03T04:55:27.680Z,0
2022-11-03T04:56:27.647Z,0
2022-11-03T04:57:27.636Z,0
2022-11-03T04:58:27.623Z,0
2022-11-03T04:59:27.613Z,0
2022-11-03T05:00:27.604Z,0
2022-11-03T05:01:27.602Z,0
2022-11-03T05:02:27.578Z,0
2022-11-03T05:03:27.573Z,0
2022-11-03T05:04:27.562Z,0
2022-11-03T05:05:27.545Z,0
2022-11-03T05:06:27.541Z,0
2022-11-03T05:07:27.525Z,0
2022-11-03T05:08:27.548Z,0
2022-11-03T05:09:27.507Z,0
2022-11-03T05:10:27.493Z,0
2022-11-03T05:11:27.479Z,0
2022-11-03T05:12:27.471Z,0
2022-11-03T05:13:30.183Z,0
2022-11-03T05:14:27.450Z,0
2022-11-03T05:15:27.445Z,0
2022-11-03T05:16:27.432Z,0
2022-11-03T05:17:27.415Z,0
2022-11-03T05:18:27.404Z,0
2022-11-03T05:19:27.396Z,0
2022-11-03T05:20:27.388Z,0
2022-11-03T05:21:27.378Z,0
2022-11-03T05:22:27.366Z,0
2022-11-03T05:23:27.354Z,0
2022-11-03T05:24:27.350Z,0
2022-11-03T05:25:27.332Z,0
2022-11-03T05:26:27.329Z,0
2022-11-03T05:27:27.311Z,0
2022-11-03T05:28:27.301Z,0
2022-11-03T05:29:27.290Z,0
2022-11-03T05:30:27.273Z,0
2022-11-03T05:31:27.264Z,0
2022-11-03T05:32:27.257Z,0
2022-11-03T05:33:27.258Z,0
2022-11-03T05:34:27.229Z,0
2022-11-03T05:35:27.224Z,0
2022-11-03T05:36:27.206Z,0
2022-11-03T05:37:27.197Z,0
2022-11-03T05:38:27.194Z,0
2022-11-03T05:39:27.182Z,0
2022-11-03T05:40:27.167Z,0
2022-11-03T05:41:27.157Z,0
2022-11-03T05:42:27.147Z,0
2022-11-03T05:43:27.130Z,0
2022-11-03T05:44:27.124Z,0
2022-11-03T05:45:27.116Z,0
2022-11-03T05:46:27.105Z,0
2022-11-03T05:47:27.087Z,0
2022-11-03T05:48:27.084Z,0
2022-11-03T05:49:27.072Z,0
2022-11-03T05:50:27.060Z,0
2022-11-03T05:51:27.051Z,0
2022-11-03T05:52:27.041Z,0
2022-11-03T05:53:27.027Z,0
2022-11-03T05:54:27.015Z,0
2022-11-03T05:55:27.006Z,0
2022-11-03T05:56:26.994Z,0
2022-11-03T05:57:26.984Z,0
2022-11-03T05:58:26.975Z,0
2022-11-03T05:59:26.982Z,0
2022-11-03T06:00:26.949Z,0
2022-11-03T06:01:26.948Z,0
2022-11-03T06:02:26.928Z,0
2022-11-03T06:03:26.923Z,0
2022-11-03T06:04:26.912Z,0
2022-11-03T06:05:26.914Z,0
2022-11-03T06:06:26.885Z,0
2022-11-03T06:07:26.872Z,0
2022-11-03T06:08:26.867Z,0
2022-11-03T06:09:26.862Z,0
2022-11-03T06:10:26.841Z,0
2022-11-03T06:11:26.854Z,0
2022-11-03T06:12:26.848Z,0
2022-11-03T06:13:26.810Z,0
2022-11-03T06:14:26.808Z,0
2022-11-03T06:15:26.795Z,0
2022-11-03T06:16:26.782Z,0
2022-11-03T06:17:26.770Z,0
2022-11-03T06:18:26.760Z,0
2022-11-03T06:19:26.753Z,0
2022-11-03T06:20:26.737Z,0
2022-11-03T06:21:26.759Z,0
2022-11-03T06:22:26.729Z,0
2022-11-03T06:23:26.738Z,0
2022-11-03T06:24:26.718Z,0
2022-11-03T06:25:26.686Z,0
2022-11-03T06:26:26.673Z,0
2022-11-03T06:27:26.664Z,0
2022-11-03T06:28:26.653Z,0
2022-11-03T06:29:26.641Z,0
2022-11-03T06:30:26.635Z,0
2022-11-03T06:31:26.618Z,0
2022-11-03T06:32:26.611Z,0
2022-11-03T06:33:26.597Z,0
2022-11-03T06:34:26.588Z,5.62
2022-11-03T06:35:26.571Z,5.62
2022-11-03T06:36:26.565Z,5.62
2022-11-03T06:37:26.555Z,5.62
2022-11-03T06:38:26.541Z,5.62
2022-11-03T06:39:26.535Z,5.62
2022-11-03T06:40:26.520Z,5.62
2022-11-03T06:41:26.516Z,5.62
2022-11-03T06:42:26.495Z,5.62
2022-11-03T06:43:26.490Z,5.62
2022-11-03T06:44:26.477Z,5.62
2022-11-03T06:45:26.466Z,5.62
2022-11-03T06:46:26.451Z,11.25
2022-11-03T06:47:26.449Z,11.25
2022-11-03T06:48:26.471Z,11.25
2022-11-03T06:49:26.421Z,11.25
2022-11-03T06:50:26.411Z,11.25
2022-11-03T06:51:26.405Z,11.25
2022-11-03T06:52:26.392Z,11.25
2022-11-03T06:53:26.382Z,11.25
2022-11-03T06:54:26.377Z,11.25
2022-11-03T06:55:26.361Z,16.88
2022-11-03T06:56:26.371Z,16.88
2022-11-03T06:57:26.342Z,16.88
2022-11-03T06:58:26.332Z,16.88
2022-11-03T06:59:26.320Z,16.88
2022-11-03T07:00:26.303Z,16.88
2022-11-03T07:01:26.309Z,16.88
2022-11-03T07:02:26.291Z,16.88
2022-11-03T07:03:26.278Z,16.88
2022-11-03T07:04:26.291Z,16.88
2022-11-03T07:05:26.255Z,22.5
2022-11-03T07:06:26.250Z,22.5
2022-11-03T07:07:26.239Z,22.5
2022-11-03T07:08:26.233Z,22.5
2022-11-03T07:09:26.205Z,22.5
2022-11-03T07:10:26.197Z,22.5
2022-11-03T07:11:26.191Z,22.5
2022-11-03T07:12:26.174Z,22.5
2022-11-03T07:13:26.181Z,22.5
2022-11-03T07:14:26.162Z,28.12
2022-11-03T07:15:26.162Z,28.12
2022-11-03T07:16:26.138Z,28.12
2022-11-03T07:17:26.133Z,28.12
2022-11-03T07:18:26.114Z,28.12
2022-11-03T07:19:26.110Z,28.12
2022-11-03T07:20:26.108Z,33.75
2022-11-03T07:21:26.076Z,33.75
2022-11-03T07:22:26.074Z,33.75
2022-11-03T07:23:26.056Z,33.75
2022-11-03T07:24:26.049Z,39.38
2022-11-03T07:25:26.039Z,39.38
2022-11-03T07:26:26.068Z,39.38
2022-11-03T07:27:26.037Z,39.38
2022-11-03T07:28:26.002Z,45
2022-11-03T07:29:26.001Z,45
2022-11-03T07:30:26.024Z,45
2022-11-03T07:31:25.971Z,45
2022-11-03T07:32:25.991Z,45
2022-11-03T07:33:26.042Z,45
2022-11-03T07:34:27.115Z,45
2022-11-03T07:35:26.085Z,50.62
2022-11-03T07:36:25.938Z,50.62
2022-11-03T07:37:25.906Z,50.62
2022-11-03T07:38:25.981Z,50.62
2022-11-03T07:39:25.892Z,56.25
2022-11-03T07:40:25.877Z,56.25
2022-11-03T07:41:25.920Z,56.25
2022-11-03T07:42:26.886Z,56.25
2022-11-03T07:43:25.858Z,61.88
2022-11-03T07:44:25.831Z,61.88
2022-11-03T07:45:25.877Z,61.88
2022-11-03T07:46:25.893Z,61.88
2022-11-03T07:47:25.827Z,61.88
2022-11-03T07:48:25.843Z,61.88
2022-11-03T07:49:25.782Z,67.5
2022-11-03T07:50:25.759Z,67.5
2022-11-03T07:51:25.770Z,67.5
2022-11-03T07:52:25.739Z,67.5
2022-11-03T07:53:25.734Z,67.5
2022-11-03T07:54:25.741Z,67.5
2022-11-03T07:55:25.707Z,67.5
2022-11-03T07:56:25.716Z,67.5
2022-11-03T07:57:25.681Z,67.5
2022-11-03T07:58:25.947Z,67.5
2022-11-03T07:59:25.751Z,67.5
2022-11-03T08:00:25.679Z,67.5
2022-11-03T08:10:01.004Z,73.12
2022-11-03T08:11:01.821Z,73.12
2022-11-03T08:12:00.805Z,73.12
2022-11-03T08:13:01.208Z,73.12
2022-11-03T08:14:00.776Z,78.75
2022-11-03T08:15:00.773Z,78.75
2022-11-03T08:16:00.725Z,78.75
2022-11-03T08:17:00.737Z,78.75
2022-11-03T08:18:00.717Z,78.75
2022-11-03T08:19:00.714Z,78.75
2022-11-03T08:20:00.684Z,78.75
2022-11-03T08:21:00.710Z,78.75
2022-11-03T08:22:00.735Z,78.75
2022-11-03T08:23:00.664Z,78.75
2022-11-03T08:24:00.671Z,84.38
2022-11-03T08:25:00.669Z,84.38
2022-11-03T08:26:00.831Z,84.38
2022-11-03T08:27:00.634Z,84.38
2022-11-03T08:28:00.689Z,84.38
2022-11-03T08:29:00.745Z,84.38
2022-11-03T08:30:00.664Z,90
2022-11-03T08:31:00.606Z,90
2022-11-03T08:32:00.680Z,95.62
2022-11-03T08:33:01.572Z,95.62
2022-11-03T08:34:00.580Z,95.62
2022-11-03T08:35:01.764Z,101.25
2022-11-03T08:36:00.585Z,101.25
2022-11-03T08:37:00.534Z,101.25
2022-11-03T08:38:00.574Z,101.25
2022-11-03T08:39:01.489Z,101.25
2022-11-03T08:40:00.512Z,106.88
2022-11-03T08:41:00.484Z,106.88
2022-11-03T08:42:00.529Z,106.88
2022-11-03T08:43:00.653Z,106.88
2022-11-03T08:44:00.498Z,101.25
2022-11-03T08:45:01.506Z,101.25
2022-11-03T08:46:00.506Z,101.25
2022-11-03T08:47:00.422Z,101.25
2022-11-03T08:48:01.395Z,101.25
2022-11-03T08:49:00.402Z,101.25
2022-11-03T08:50:01.386Z,101.25
2022-11-03T08:51:00.359Z,106.88
2022-11-03T08:52:00.474Z,106.88
2022-11-03T08:53:00.357Z,112.5
2022-11-03T08:54:00.357Z,112.5
2022-11-03T08:55:00.321Z,112.5
2022-11-03T08:56:00.312Z,112.5
2022-11-03T08:57:00.398Z,112.5
2022-11-03T08:58:01.318Z,106.88
2022-11-03T08:59:01.329Z,106.88
2022-11-03T09:00:00.282Z,112.5
2022-11-03T09:01:00.367Z,112.5
2022-11-03T09:02:00.302Z,112.5
2022-11-03T09:03:00.400Z,112.5
2022-11-03T09:04:00.266Z,106.88
2022-11-03T09:05:00.216Z,106.88
2022-11-03T09:06:00.222Z,106.88
2022-11-03T09:07:00.212Z,101.25
2022-11-03T09:10:00.158Z,101.25
2022-11-03T09:11:00.161Z,95.62
2022-11-03T09:12:00.138Z,95.62
2022-11-03T09:13:00.124Z,90
2022-11-03T09:14:00.120Z,90
2022-11-03T09:15:00.126Z,84.38
2022-11-03T09:16:00.128Z,84.38
2022-11-03T09:17:00.100Z,84.38
2022-11-03T09:18:00.113Z,78.75
2022-11-03T09:19:00.061Z,78.75
2022-11-03T09:20:00.053Z,78.75
2022-11-03T09:21:00.070Z,73.12
2022-11-03T09:22:00.058Z,73.12
2022-11-03T09:23:00.031Z,73.12
2022-11-03T09:24:00.022Z,73.12
2022-11-03T09:25:00.037Z,73.12
2022-11-03T09:26:00.025Z,67.5
2022-11-03T09:27:00.022Z,67.5
2022-11-03T09:28:00.015Z,67.5
2022-11-03T09:29:00.035Z,67.5
2022-11-03T09:29:59.947Z,67.5
2022-11-03T09:30:59.938Z,73.12
2022-11-03T09:32:00.110Z,73.12
2022-11-03T09:32:59.934Z,78.75
2022-11-03T09:33:59.943Z,84.38
2022-11-03T09:34:59.902Z,84.38
2022-11-03T09:35:59.948Z,90
2022-11-03T09:36:59.900Z,95.62
2022-11-03T09:37:59.915Z,95.62
2022-11-03T09:39:00.952Z,101.25
2022-11-03T09:39:59.854Z,101.25
2022-11-03T09:40:59.843Z,106.88
2022-11-03T09:41:59.826Z,106.88
2022-11-03T09:42:59.817Z,106.88
2022-11-03T09:43:59.797Z,106.88
2022-11-03T09:44:59.838Z,106.88
2022-11-03T09:45:59.778Z,112.5
2022-11-03T09:46:59.770Z,112.5
2022-11-03T09:47:59.763Z,118.12
2022-11-03T09:48:59.751Z,123.75
2022-11-03T09:49:59.798Z,123.75
2022-11-03T09:50:59.718Z,129.38
2022-11-03T09:51:59.706Z,135
2022-11-03T09:52:59.706Z,140.62
2022-11-03T09:53:59.685Z,140.62
2022-11-03T09:54:59.678Z,140.62
2022-11-03T09:55:59.685Z,140.62
2022-11-03T09:56:59.654Z,140.62
2022-11-03T09:57:59.673Z,140.62
2022-11-03T09:58:59.653Z,140.62
2022-11-03T09:59:59.624Z,140.62
2022-11-03T10:00:59.616Z,140.62
2022-11-03T10:01:59.627Z,140.62
2022-11-03T10:02:59.596Z,140.62
2022-11-03T10:03:59.582Z,140.62
2022-11-03T10:04:59.569Z,140.62
2022-11-03T10:05:59.560Z,135
2022-11-03T10:06:59.558Z,135
2022-11-03T10:07:59.569Z,135
2022-11-03T10:08:59.529Z,135
2022-11-03T10:09:59.532Z,135
2022-11-03T10:10:59.515Z,129.38
2022-11-03T10:11:59.499Z,129.38
2022-11-03T10:12:59.488Z,123.75
2022-11-03T10:13:59.476Z,123.75
2022-11-03T10:14:59.462Z,123.75
2022-11-03T10:15:59.456Z,123.75
2022-11-03T10:16:59.442Z,118.12
2022-11-03T10:17:59.430Z,118.12
2022-11-03T10:18:59.448Z,118.12
2022-11-03T10:19:59.428Z,118.12
2022-11-03T10:20:59.514Z,112.5
2022-11-03T10:21:59.384Z,112.5
2022-11-03T10:22:59.385Z,112.5
2022-11-03T10:23:59.375Z,112.5
2022-11-03T10:24:59.405Z,112.5
2022-11-03T10:25:59.377Z,112.5
2022-11-03T10:26:59.353Z,112.5
2022-11-03T10:27:59.332Z,112.5
2022-11-03T10:28:59.351Z,112.5
2022-11-03T10:29:59.307Z,112.5
2022-11-03T10:30:59.307Z,106.88
2022-11-03T10:31:59.284Z,106.88
2022-11-03T10:32:59.271Z,106.88
2022-11-03T10:33:59.359Z,101.25
2022-11-03T10:35:00.318Z,101.25
2022-11-03T10:35:59.240Z,101.25
2022-11-03T10:36:59.228Z,101.25
2022-11-03T10:37:59.214Z,95.62
2022-11-03T10:38:59.252Z,95.62
2022-11-03T10:39:59.240Z,95.62
2022-11-03T10:40:59.186Z,90
2022-11-03T10:41:59.174Z,90
2022-11-03T10:42:59.174Z,90
2022-11-03T10:43:59.217Z,90
2022-11-03T10:44:59.153Z,90
2022-11-03T10:45:59.163Z,90
2022-11-03T10:46:59.130Z,90
2022-11-03T10:47:59.117Z,90
2022-11-03T10:48:59.106Z,95.62
2022-11-03T10:49:59.086Z,90
2022-11-03T10:50:59.085Z,90
2022-11-03T10:52:00.072Z,95.62
2022-11-03T10:52:59.056Z,95.62
2022-11-03T10:53:59.045Z,95.62
2022-11-03T10:54:59.068Z,95.62
2022-11-03T10:55:59.031Z,95.62
2022-11-03T10:56:59.019Z,95.62
2022-11-03T10:57:59.008Z,90
2022-11-03T10:59:58.989Z,84.38
2022-11-03T11:00:58.972Z,84.38
2022-11-03T11:01:58.987Z,78.75
2022-11-03T11:02:58.958Z,78.75
2022-11-03T11:03:58.948Z,73.12
2022-11-03T11:04:58.930Z,73.12
2022-11-03T11:05:58.948Z,73.12
2022-11-03T11:06:58.919Z,73.12
2022-11-03T11:07:58.916Z,73.12
2022-11-03T11:08:58.884Z,73.12
2022-11-03T11:09:58.882Z,78.75
2022-11-03T11:10:58.871Z,84.38
2022-11-03T11:11:58.898Z,90
2022-11-03T11:12:58.859Z,95.62
2022-11-03T11:13:58.831Z,101.25
2022-11-03T11:14:58.817Z,106.88
2022-11-03T11:15:58.829Z,106.88
2022-11-03T11:16:58.803Z,106.88
2022-11-03T11:17:58.789Z,112.5
2022-11-03T11:18:58.793Z,112.5
2022-11-03T11:19:58.805Z,112.5
2022-11-03T11:20:58.757Z,123.75
2022-11-03T11:21:58.744Z,135
2022-11-03T11:22:58.740Z,140.62
2022-11-03T11:23:58.732Z,140.62
2022-11-03T11:24:58.713Z,146.25
2022-11-03T11:25:58.705Z,163.12
2022-11-03T11:26:58.769Z,151.88
2022-11-03T11:30:00.999Z,281.25
2022-11-03T11:31:01.027Z,303.75
2022-11-03T11:32:01.077Z,292.5
2022-11-03T11:33:00.983Z,253.12
2022-11-03T11:34:00.875Z,241.88
2022-11-03T11:35:00.821Z,253.12
2022-11-03T11:36:00.843Z,219.38
2022-11-03T11:37:00.806Z,225
2022-11-03T11:38:00.804Z,241.88
2022-11-03T11:39:00.808Z,230.62
2022-11-03T11:40:00.838Z,208.12
2022-11-03T11:41:00.763Z,185.62
2022-11-03T11:42:00.753Z,168.75
2022-11-03T11:43:00.725Z,146.25
2022-11-03T11:44:00.732Z,140.62
2022-11-03T11:45:00.805Z,140.62
2022-11-03T11:46:01.706Z,135
2022-11-03T11:47:00.881Z,123.75
2022-11-03T11:48:01.152Z,112.5
2022-11-03T11:49:00.680Z,106.88
2022-11-03T11:50:00.760Z,106.88
2022-11-03T11:51:00.884Z,106.88
2022-11-03T11:52:01.009Z,101.25
2022-11-03T11:53:00.966Z,101.25
2022-11-03T11:54:00.777Z,101.25
2022-11-03T11:55:01.986Z,101.25
2022-11-03T11:56:00.981Z,106.88
2022-11-03T11:57:00.780Z,101.25
2022-11-03T11:58:00.668Z,101.25
2022-11-03T11:59:00.561Z,106.88
2022-11-03T12:00:00.631Z,106.88
2022-11-03T12:01:01.700Z,106.88
2022-11-03T12:02:00.652Z,106.88
2022-11-03T12:03:00.552Z,106.88
2022-11-03T12:04:00.973Z,106.88
2022-11-03T12:05:00.672Z,101.25
2022-11-03T12:06:01.521Z,106.88
2022-11-03T12:07:00.557Z,101.25
2022-11-03T12:08:01.486Z,101.25
2022-11-03T12:09:00.465Z,101.25
2022-11-03T12:10:00.467Z,101.25
2022-11-03T12:11:00.475Z,101.25
2022-11-03T12:12:00.877Z,95.62
2022-11-03T12:13:00.635Z,95.62
2022-11-03T12:14:00.862Z,95.62
2022-11-03T12:15:00.561Z,101.25
2022-11-03T12:16:01.389Z,101.25
2022-11-03T12:17:00.470Z,101.25
2022-11-03T12:18:00.456Z,95.62
2022-11-03T12:19:00.371Z,90
2022-11-03T12:20:00.363Z,90
2022-11-03T12:21:00.414Z,84.38
2022-11-03T12:22:00.318Z,84.38
2022-11-03T12:23:00.417Z,84.38
2022-11-03T12:24:00.331Z,78.75
2022-11-03T12:25:00.606Z,78.75
2022-11-03T12:26:00.359Z,78.75
2022-11-03T12:27:00.524Z,73.12
2022-11-03T12:28:00.292Z,73.12
2022-11-03T12:29:00.264Z,67.5
2022-11-03T12:30:01.315Z,67.5
2022-11-03T12:32:01.327Z,67.5
2022-11-03T12:33:00.296Z,67.5
2022-11-03T12:34:00.306Z,67.5
2022-11-03T12:35:01.214Z,67.5
2022-11-03T12:36:00.174Z,67.5
2022-11-03T12:37:00.245Z,67.5
2022-11-03T12:38:01.174Z,67.5
2022-11-03T12:39:00.500Z,67.5
2022-11-03T12:40:00.237Z,67.5
2022-11-03T12:41:00.530Z,67.5
2022-11-03T12:42:00.263Z,67.5
2022-11-03T12:43:01.366Z,67.5
2022-11-03T12:44:00.417Z,67.5
2022-11-03T12:45:00.234Z,67.5
2022-11-03T12:46:00.591Z,67.5
2022-11-03T12:47:00.781Z,67.5
2022-11-03T12:48:00.142Z,67.5
2022-11-03T12:49:01.224Z,67.5
2022-11-03T12:50:01.281Z,67.5
2022-11-03T12:51:00.458Z,61.88
2022-11-03T12:52:01.190Z,61.88
2022-11-03T12:53:02.841Z,61.88
2022-11-03T12:54:00.075Z,61.88
2022-11-03T13:04:50.806Z,50.62
2022-11-03T13:05:50.857Z,45
2022-11-03T13:06:50.753Z,45
2022-11-03T13:07:51.629Z,45
2022-11-03T13:08:50.687Z,45
2022-11-03T13:09:50.627Z,39.38
2022-11-03T13:10:50.748Z,39.38
2022-11-03T13:11:51.672Z,39.38
2022-11-03T13:12:50.798Z,45
2022-11-03T13:13:50.601Z,45
2022-11-03T13:14:51.586Z,50.62
2022-11-03T13:15:51.791Z,56.25
2022-11-03T13:16:50.696Z,56.25
2022-11-03T13:17:51.506Z,67.5
2022-11-03T13:18:50.590Z,84.38
2022-11-03T13:19:51.580Z,101.25
2022-11-03T13:20:51.626Z,118.12
2022-11-03T13:21:50.431Z,140.62
2022-11-03T13:22:50.845Z,157.5
2022-11-03T13:23:50.397Z,180
2022-11-03T13:24:50.588Z,180
2022-11-03T13:25:50.499Z,185.62
2022-11-03T13:26:50.464Z,180
2022-11-03T13:27:51.775Z,168.75
2022-11-03T13:28:50.495Z,151.88
2022-11-03T13:29:50.475Z,140.62
2022-11-03T13:30:50.510Z,123.75
2022-11-03T13:31:50.353Z,112.5
2022-11-03T13:32:50.412Z,112.5
2022-11-03T13:33:50.356Z,106.88
2022-11-03T13:34:51.667Z,95.62
2022-11-03T13:35:50.315Z,90
2022-11-03T13:36:51.289Z,95.62
2022-11-03T13:37:51.316Z,101.25
2022-11-03T13:38:51.277Z,106.88
2022-11-03T13:39:51.278Z,106.88
2022-11-03T13:40:50.427Z,106.88
2022-11-03T13:41:50.248Z,106.88
2022-11-03T13:42:51.324Z,106.88
2022-11-03T13:43:50.386Z,106.88
2022-11-03T13:44:50.310Z,106.88
2022-11-03T13:45:51.219Z,101.25
2022-11-03T13:46:50.171Z,95.62
2022-11-03T13:48:08.940Z,90
2022-11-03T13:48:50.367Z,84.38
2022-11-03T13:49:50.362Z,84.38
2022-11-03T13:50:50.237Z,84.38
2022-11-03T13:51:50.187Z,78.75
2022-11-03T13:52:50.187Z,78.75
2022-11-03T13:55:51.215Z,61.88
2022-11-03T14:16:01.206Z,39.38
2022-11-03T14:17:01.186Z,39.38
2022-11-03T14:18:02.039Z,39.38
2022-11-03T14:19:00.957Z,39.38
2022-11-03T14:20:01.147Z,39.38
2022-11-03T14:21:04.379Z,39.38
2022-11-03T14:22:01.089Z,39.38
2022-11-03T14:23:01.081Z,39.38
2022-11-03T14:24:00.955Z,45
2022-11-03T14:25:00.929Z,45
2022-11-03T14:26:01.040Z,45
2022-11-03T14:27:02.249Z,45
2022-11-03T14:28:22.652Z,45
2022-11-03T14:29:01.233Z,39.38
2022-11-03T14:30:01.887Z,33.75
2022-11-03T14:31:01.052Z,33.75
2022-11-03T14:32:01.200Z,28.12